sensor_id;sensor_type;location;lat;lon;timestamp;P1;durP1;ratioP1;P2;durP2;ratioP2
43835;SDS011;39345;43.964;25.340;2024-01-16T00:02:20;45.28;;;24.42;;
43835;SDS011;39345;43.964;25.340;2024-01-16T00:04:48;44.28;;;23.73;;
43835;SDS011;39345;43.964;25.340;2024-01-16T00:07:15;39.03;;;23.02;;
43835;SDS011;39345;43.964;25.340;2024-01-16T00:09:43;41.38;;;24.55;;
43835;SDS011;39345;43.964;25.340;2024-01-16T00:12:12;39.20;;;23.65;;
43835;SDS011;39345;43.964;25.340;2024-01-16T00:14:39;43.45;;;23.65;;
43835;SDS011;39345;43.964;25.340;2024-01-16T00:17:07;41.35;;;23.67;;
43835;SDS011;39345;43.964;25.340;2024-01-16T00:19:35;39.58;;;24.13;;
43835;SDS011;39345;43.964;25.340;2024-01-16T00:22:03;45.45;;;24.63;;
43835;SDS011;39345;43.964;25.340;2024-01-16T00:24:31;42.28;;;24.25;;
43835;SDS011;39345;43.964;25.340;2024-01-16T00:26:59;40.03;;;23.17;;
43835;SDS011;39345;43.964;25.340;2024-01-16T00:29:26;38.08;;;22.95;;
43835;SDS011;39345;43.964;25.340;2024-01-16T00:31:54;41.78;;;22.80;;
43835;SDS011;39345;43.964;25.340;2024-01-16T00:34:21;38.58;;;22.88;;
43835;SDS011;39345;43.964;25.340;2024-01-16T00:36:49;38.13;;;22.17;;
43835;SDS011;39345;43.964;25.340;2024-01-16T00:39:16;37.47;;;21.08;;
43835;SDS011;39345;43.964;25.340;2024-01-16T00:41:44;36.83;;;21.13;;
43835;SDS011;39345;43.964;25.340;2024-01-16T00:44:12;32.58;;;20.73;;
43835;SDS011;39345;43.964;25.340;2024-01-16T00:46:40;35.78;;;21.42;;
43835;SDS011;39345;43.964;25.340;2024-01-16T00:49:07;30.77;;;19.27;;
43835;SDS011;39345;43.964;25.340;2024-01-16T00:51:35;36.85;;;20.02;;
43835;SDS011;39345;43.964;25.340;2024-01-16T00:54:03;32.92;;;20.42;;
43835;SDS011;39345;43.964;25.340;2024-01-16T00:56:32;32.80;;;19.98;;
43835;SDS011;39345;43.964;25.340;2024-01-16T00:59:00;34.80;;;20.42;;
43835;SDS011;39345;43.964;25.340;2024-01-16T01:01:28;33.45;;;20.40;;
43835;SDS011;39345;43.964;25.340;2024-01-16T01:03:56;34.85;;;20.38;;
43835;SDS011;39345;43.964;25.340;2024-01-16T01:06:23;35.67;;;20.38;;
43835;SDS011;39345;43.964;25.340;2024-01-16T01:08:51;32.85;;;19.75;;
43835;SDS011;39345;43.964;25.340;2024-01-16T01:11:18;35.85;;;20.27;;
43835;SDS011;39345;43.964;25.340;2024-01-16T01:13:46;40.90;;;22.38;;
43835;SDS011;39345;43.964;25.340;2024-01-16T01:16:14;36.42;;;21.10;;
43835;SDS011;39345;43.964;25.340;2024-01-16T01:18:41;32.47;;;19.88;;
43835;SDS011;39345;43.964;25.340;2024-01-16T01:21:09;32.38;;;20.70;;
43835;SDS011;39345;43.964;25.340;2024-01-16T01:23:37;36.33;;;21.63;;
43835;SDS011;39345;43.964;25.340;2024-01-16T01:26:04;32.40;;;19.55;;
43835;SDS011;39345;43.964;25.340;2024-01-16T01:28:32;32.42;;;20.02;;
43835;SDS011;39345;43.964;25.340;2024-01-16T01:31:00;34.65;;;20.30;;
43835;SDS011;39345;43.964;25.340;2024-01-16T01:33:27;35.15;;;19.52;;
43835;SDS011;39345;43.964;25.340;2024-01-16T01:35:55;36.03;;;20.00;;
43835;SDS011;39345;43.964;25.340;2024-01-16T01:38:23;35.30;;;20.33;;
43835;SDS011;39345;43.964;25.340;2024-01-16T01:40:50;37.03;;;18.92;;
43835;SDS011;39345;43.964;25.340;2024-01-16T01:43:22;33.70;;;20.73;;
43835;SDS011;39345;43.964;25.340;2024-01-16T01:45:56;32.28;;;19.35;;
43835;SDS011;39345;43.964;25.340;2024-01-16T01:48:27;36.00;;;20.38;;
43835;SDS011;39345;43.964;25.340;2024-01-16T01:50:55;34.97;;;19.65;;
43835;SDS011;39345;43.964;25.340;2024-01-16T01:53:22;36.22;;;21.30;;
43835;SDS011;39345;43.964;25.340;2024-01-16T01:55:50;37.33;;;20.83;;
43835;SDS011;39345;43.964;25.340;2024-01-16T01:58:18;35.63;;;20.35;;
43835;SDS011;39345;43.964;25.340;2024-01-16T02:00:45;35.30;;;20.70;;
43835;SDS011;39345;43.964;25.340;2024-01-16T02:03:13;35.67;;;21.73;;
43835;SDS011;39345;43.964;25.340;2024-01-16T02:05:41;34.53;;;21.33;;
43835;SDS011;39345;43.964;25.340;2024-01-16T02:08:09;35.05;;;21.50;;
43835;SDS011;39345;43.964;25.340;2024-01-16T02:10:37;35.72;;;21.08;;
43835;SDS011;39345;43.964;25.340;2024-01-16T02:13:06;36.65;;;20.42;;
43835;SDS011;39345;43.964;25.340;2024-01-16T02:15:33;33.95;;;20.77;;
43835;SDS011;39345;43.964;25.340;2024-01-16T02:18:01;33.22;;;20.75;;
43835;SDS011;39345;43.964;25.340;2024-01-16T02:20:39;30.08;;;19.42;;
43835;SDS011;39345;43.964;25.340;2024-01-16T02:23:08;33.92;;;20.23;;
43835;SDS011;39345;43.964;25.340;2024-01-16T02:25:38;33.00;;;20.52;;
43835;SDS011;39345;43.964;25.340;2024-01-16T02:28:06;36.05;;;20.77;;
43835;SDS011;39345;43.964;25.340;2024-01-16T02:30:33;31.02;;;19.23;;
43835;SDS011;39345;43.964;25.340;2024-01-16T02:33:01;33.78;;;20.15;;
43835;SDS011;39345;43.964;25.340;2024-01-16T02:35:30;30.48;;;20.33;;
43835;SDS011;39345;43.964;25.340;2024-01-16T02:37:58;33.70;;;20.48;;
43835;SDS011;39345;43.964;25.340;2024-01-16T02:40:27;33.70;;;20.60;;
43835;SDS011;39345;43.964;25.340;2024-01-16T02:42:54;32.75;;;19.27;;
43835;SDS011;39345;43.964;25.340;2024-01-16T02:45:22;32.63;;;19.33;;
43835;SDS011;39345;43.964;25.340;2024-01-16T02:47:49;30.25;;;18.42;;
43835;SDS011;39345;43.964;25.340;2024-01-16T02:50:17;29.85;;;18.83;;
43835;SDS011;39345;43.964;25.340;2024-01-16T02:52:46;31.38;;;19.67;;
43835;SDS011;39345;43.964;25.340;2024-01-16T02:55:14;35.28;;;20.48;;
43835;SDS011;39345;43.964;25.340;2024-01-16T02:57:42;36.42;;;20.02;;
43835;SDS011;39345;43.964;25.340;2024-01-16T03:00:09;32.72;;;20.40;;
43835;SDS011;39345;43.964;25.340;2024-01-16T03:02:37;33.38;;;19.85;;
43835;SDS011;39345;43.964;25.340;2024-01-16T03:05:06;30.65;;;18.55;;
43835;SDS011;39345;43.964;25.340;2024-01-16T03:07:34;32.63;;;20.27;;
43835;SDS011;39345;43.964;25.340;2024-01-16T03:10:01;31.98;;;19.27;;
43835;SDS011;39345;43.964;25.340;2024-01-16T03:12:29;32.85;;;20.38;;
43835;SDS011;39345;43.964;25.340;2024-01-16T03:14:56;34.15;;;20.35;;
43835;SDS011;39345;43.964;25.340;2024-01-16T03:17:24;34.28;;;19.25;;
43835;SDS011;39345;43.964;25.340;2024-01-16T03:19:52;29.38;;;17.60;;
43835;SDS011;39345;43.964;25.340;2024-01-16T03:22:19;28.00;;;16.95;;
43835;SDS011;39345;43.964;25.340;2024-01-16T03:24:49;26.80;;;16.85;;
43835;SDS011;39345;43.964;25.340;2024-01-16T03:27:17;28.55;;;17.67;;
43835;SDS011;39345;43.964;25.340;2024-01-16T03:29:44;26.77;;;16.48;;
43835;SDS011;39345;43.964;25.340;2024-01-16T03:32:12;28.05;;;16.23;;
43835;SDS011;39345;43.964;25.340;2024-01-16T03:34:40;27.98;;;17.10;;
43835;SDS011;39345;43.964;25.340;2024-01-16T03:37:08;26.42;;;16.70;;
43835;SDS011;39345;43.964;25.340;2024-01-16T03:39:35;28.48;;;17.52;;
43835;SDS011;39345;43.964;25.340;2024-01-16T03:42:03;25.13;;;17.38;;
43835;SDS011;39345;43.964;25.340;2024-01-16T03:44:31;28.90;;;17.92;;
43835;SDS011;39345;43.964;25.340;2024-01-16T03:46:58;28.20;;;17.85;;
43835;SDS011;39345;43.964;25.340;2024-01-16T03:49:26;29.25;;;17.63;;
43835;SDS011;39345;43.964;25.340;2024-01-16T03:51:53;28.83;;;18.15;;
43835;SDS011;39345;43.964;25.340;2024-01-16T03:54:21;30.30;;;18.85;;
43835;SDS011;39345;43.964;25.340;2024-01-16T03:56:48;30.23;;;18.85;;
43835;SDS011;39345;43.964;25.340;2024-01-16T03:59:17;34.85;;;20.60;;
43835;SDS011;39345;43.964;25.340;2024-01-16T04:01:45;31.85;;;19.70;;
43835;SDS011;39345;43.964;25.340;2024-01-16T04:04:14;29.83;;;19.63;;
43835;SDS011;39345;43.964;25.340;2024-01-16T04:06:42;34.65;;;20.40;;
43835;SDS011;39345;43.964;25.340;2024-01-16T04:09:10;38.00;;;22.02;;
43835;SDS011;39345;43.964;25.340;2024-01-16T04:11:37;36.72;;;21.23;;
43835;SDS011;39345;43.964;25.340;2024-01-16T04:14:05;36.38;;;23.30;;
43835;SDS011;39345;43.964;25.340;2024-01-16T04:16:33;41.55;;;24.75;;
43835;SDS011;39345;43.964;25.340;2024-01-16T04:19:00;39.00;;;24.67;;
43835;SDS011;39345;43.964;25.340;2024-01-16T04:21:28;44.75;;;26.00;;
43835;SDS011;39345;43.964;25.340;2024-01-16T04:23:56;43.60;;;25.83;;
43835;SDS011;39345;43.964;25.340;2024-01-16T04:26:23;45.58;;;27.40;;
43835;SDS011;39345;43.964;25.340;2024-01-16T04:28:51;49.17;;;30.45;;
43835;SDS011;39345;43.964;25.340;2024-01-16T04:31:19;50.10;;;30.83;;
43835;SDS011;39345;43.964;25.340;2024-01-16T04:33:48;55.13;;;31.65;;
43835;SDS011;39345;43.964;25.340;2024-01-16T04:36:16;54.47;;;30.90;;
43835;SDS011;39345;43.964;25.340;2024-01-16T04:38:44;52.20;;;29.92;;
43835;SDS011;39345;43.964;25.340;2024-01-16T04:41:11;56.97;;;31.80;;
43835;SDS011;39345;43.964;25.340;2024-01-16T04:43:39;60.85;;;33.45;;
43835;SDS011;39345;43.964;25.340;2024-01-16T04:46:07;59.45;;;34.50;;
43835;SDS011;39345;43.964;25.340;2024-01-16T04:48:34;63.05;;;35.08;;
43835;SDS011;39345;43.964;25.340;2024-01-16T04:51:03;63.63;;;36.35;;
43835;SDS011;39345;43.964;25.340;2024-01-16T04:53:30;64.32;;;36.97;;
43835;SDS011;39345;43.964;25.340;2024-01-16T04:55:58;62.88;;;35.17;;
43835;SDS011;39345;43.964;25.340;2024-01-16T04:58:26;67.40;;;36.40;;
43835;SDS011;39345;43.964;25.340;2024-01-16T05:00:54;69.50;;;36.75;;
43835;SDS011;39345;43.964;25.340;2024-01-16T05:03:22;64.45;;;34.35;;
43835;SDS011;39345;43.964;25.340;2024-01-16T05:05:49;60.90;;;34.58;;
43835;SDS011;39345;43.964;25.340;2024-01-16T05:08:17;65.07;;;34.78;;
43835;SDS011;39345;43.964;25.340;2024-01-16T05:10:45;60.13;;;34.20;;
43835;SDS011;39345;43.964;25.340;2024-01-16T05:13:12;59.17;;;33.90;;
43835;SDS011;39345;43.964;25.340;2024-01-16T05:15:40;56.58;;;31.38;;
43835;SDS011;39345;43.964;25.340;2024-01-16T05:18:08;52.25;;;29.73;;
43835;SDS011;39345;43.964;25.340;2024-01-16T05:20:36;58.22;;;30.60;;
43835;SDS011;39345;43.964;25.340;2024-01-16T05:23:03;51.13;;;28.20;;
43835;SDS011;39345;43.964;25.340;2024-01-16T05:25:31;51.70;;;28.30;;
43835;SDS011;39345;43.964;25.340;2024-01-16T05:27:58;48.72;;;27.42;;
43835;SDS011;39345;43.964;25.340;2024-01-16T05:30:27;51.92;;;28.23;;
43835;SDS011;39345;43.964;25.340;2024-01-16T05:32:54;49.42;;;26.52;;
43835;SDS011;39345;43.964;25.340;2024-01-16T05:35:22;49.25;;;25.75;;
43835;SDS011;39345;43.964;25.340;2024-01-16T05:37:51;45.35;;;25.20;;
43835;SDS011;39345;43.964;25.340;2024-01-16T05:40:19;45.38;;;25.38;;
43835;SDS011;39345;43.964;25.340;2024-01-16T05:42:48;45.63;;;24.90;;
43835;SDS011;39345;43.964;25.340;2024-01-16T05:45:16;39.88;;;23.42;;
43835;SDS011;39345;43.964;25.340;2024-01-16T05:47:44;44.88;;;24.15;;
43835;SDS011;39345;43.964;25.340;2024-01-16T05:50:12;42.78;;;24.25;;
43835;SDS011;39345;43.964;25.340;2024-01-16T05:52:39;42.13;;;23.52;;
43835;SDS011;39345;43.964;25.340;2024-01-16T05:55:10;40.83;;;21.92;;
43835;SDS011;39345;43.964;25.340;2024-01-16T05:57:38;38.42;;;22.73;;
43835;SDS011;39345;43.964;25.340;2024-01-16T06:00:06;39.55;;;22.40;;
43835;SDS011;39345;43.964;25.340;2024-01-16T06:02:34;42.42;;;21.77;;
43835;SDS011;39345;43.964;25.340;2024-01-16T06:05:01;40.25;;;20.85;;
43835;SDS011;39345;43.964;25.340;2024-01-16T06:07:29;39.53;;;21.13;;
43835;SDS011;39345;43.964;25.340;2024-01-16T06:09:57;32.00;;;18.33;;
43835;SDS011;39345;43.964;25.340;2024-01-16T06:12:24;33.20;;;19.17;;
43835;SDS011;39345;43.964;25.340;2024-01-16T06:14:52;34.20;;;17.70;;
43835;SDS011;39345;43.964;25.340;2024-01-16T06:17:19;28.40;;;15.82;;
43835;SDS011;39345;43.964;25.340;2024-01-16T06:19:47;29.98;;;16.80;;
43835;SDS011;39345;43.964;25.340;2024-01-16T06:22:15;28.80;;;16.08;;
43835;SDS011;39345;43.964;25.340;2024-01-16T06:24:42;27.58;;;15.60;;
43835;SDS011;39345;43.964;25.340;2024-01-16T06:27:10;26.67;;;15.18;;
43835;SDS011;39345;43.964;25.340;2024-01-16T06:29:40;23.98;;;14.63;;
43835;SDS011;39345;43.964;25.340;2024-01-16T06:32:08;24.83;;;14.15;;
43835;SDS011;39345;43.964;25.340;2024-01-16T06:34:36;23.73;;;13.38;;
43835;SDS011;39345;43.964;25.340;2024-01-16T06:37:03;21.75;;;13.18;;
43835;SDS011;39345;43.964;25.340;2024-01-16T06:39:31;22.73;;;12.80;;
43835;SDS011;39345;43.964;25.340;2024-01-16T06:42:00;22.25;;;12.27;;
43835;SDS011;39345;43.964;25.340;2024-01-16T06:44:27;20.00;;;12.40;;
43835;SDS011;39345;43.964;25.340;2024-01-16T06:46:57;18.08;;;11.23;;
43835;SDS011;39345;43.964;25.340;2024-01-16T06:49:31;19.60;;;11.75;;
43835;SDS011;39345;43.964;25.340;2024-01-16T06:51:59;17.80;;;10.02;;
43835;SDS011;39345;43.964;25.340;2024-01-16T06:54:27;17.77;;;9.88;;
43835;SDS011;39345;43.964;25.340;2024-01-16T06:56:54;14.95;;;9.05;;
43835;SDS011;39345;43.964;25.340;2024-01-16T06:59:22;12.98;;;7.68;;
43835;SDS011;39345;43.964;25.340;2024-01-16T07:01:49;13.45;;;7.60;;
43835;SDS011;39345;43.964;25.340;2024-01-16T07:04:18;12.70;;;7.20;;
43835;SDS011;39345;43.964;25.340;2024-01-16T07:06:45;14.13;;;7.65;;
43835;SDS011;39345;43.964;25.340;2024-01-16T07:09:13;11.07;;;7.50;;
43835;SDS011;39345;43.964;25.340;2024-01-16T07:11:42;13.43;;;7.10;;
43835;SDS011;39345;43.964;25.340;2024-01-16T07:14:10;10.75;;;6.25;;
43835;SDS011;39345;43.964;25.340;2024-01-16T07:16:38;10.77;;;6.65;;
43835;SDS011;39345;43.964;25.340;2024-01-16T07:19:05;8.73;;;6.22;;
43835;SDS011;39345;43.964;25.340;2024-01-16T07:21:33;8.50;;;4.57;;
43835;SDS011;39345;43.964;25.340;2024-01-16T07:24:01;6.80;;;4.18;;
43835;SDS011;39345;43.964;25.340;2024-01-16T07:26:29;6.97;;;3.83;;
43835;SDS011;39345;43.964;25.340;2024-01-16T07:28:57;5.32;;;3.40;;
43835;SDS011;39345;43.964;25.340;2024-01-16T07:31:25;4.78;;;3.33;;
43835;SDS011;39345;43.964;25.340;2024-01-16T07:33:53;6.28;;;3.33;;
43835;SDS011;39345;43.964;25.340;2024-01-16T07:36:20;5.78;;;3.00;;
43835;SDS011;39345;43.964;25.340;2024-01-16T07:38:48;6.40;;;3.08;;
43835;SDS011;39345;43.964;25.340;2024-01-16T07:41:15;6.72;;;3.08;;
43835;SDS011;39345;43.964;25.340;2024-01-16T07:43:43;5.00;;;3.20;;
43835;SDS011;39345;43.964;25.340;2024-01-16T07:46:15;5.85;;;3.40;;
43835;SDS011;39345;43.964;25.340;2024-01-16T07:48:43;8.18;;;3.83;;
43835;SDS011;39345;43.964;25.340;2024-01-16T07:51:10;7.45;;;4.18;;
43835;SDS011;39345;43.964;25.340;2024-01-16T07:53:38;7.78;;;4.15;;
43835;SDS011;39345;43.964;25.340;2024-01-16T07:56:06;7.68;;;4.05;;
43835;SDS011;39345;43.964;25.340;2024-01-16T07:58:34;7.05;;;3.70;;
43835;SDS011;39345;43.964;25.340;2024-01-16T08:01:01;6.80;;;3.60;;
43835;SDS011;39345;43.964;25.340;2024-01-16T08:03:29;5.47;;;2.90;;
43835;SDS011;39345;43.964;25.340;2024-01-16T08:05:57;4.68;;;2.80;;
43835;SDS011;39345;43.964;25.340;2024-01-16T08:08:26;5.05;;;2.80;;
43835;SDS011;39345;43.964;25.340;2024-01-16T08:10:54;4.88;;;2.88;;
43835;SDS011;39345;43.964;25.340;2024-01-16T08:13:22;4.22;;;2.70;;
43835;SDS011;39345;43.964;25.340;2024-01-16T08:15:50;4.45;;;2.92;;
43835;SDS011;39345;43.964;25.340;2024-01-16T08:18:17;5.93;;;2.97;;
43835;SDS011;39345;43.964;25.340;2024-01-16T08:20:45;4.93;;;2.75;;
43835;SDS011;39345;43.964;25.340;2024-01-16T08:23:13;6.93;;;2.70;;
43835;SDS011;39345;43.964;25.340;2024-01-16T08:25:40;4.30;;;2.67;;
43835;SDS011;39345;43.964;25.340;2024-01-16T08:28:08;4.30;;;2.97;;
43835;SDS011;39345;43.964;25.340;2024-01-16T08:30:35;5.63;;;2.67;;
43835;SDS011;39345;43.964;25.340;2024-01-16T08:33:03;3.58;;;2.75;;
43835;SDS011;39345;43.964;25.340;2024-01-16T08:35:31;4.90;;;2.38;;
43835;SDS011;39345;43.964;25.340;2024-01-16T08:37:59;6.13;;;2.60;;
43835;SDS011;39345;43.964;25.340;2024-01-16T08:40:27;4.97;;;2.97;;
43835;SDS011;39345;43.964;25.340;2024-01-16T08:42:55;5.82;;;2.72;;
43835;SDS011;39345;43.964;25.340;2024-01-16T08:45:23;3.67;;;2.65;;
43835;SDS011;39345;43.964;25.340;2024-01-16T08:47:52;4.10;;;2.80;;
43835;SDS011;39345;43.964;25.340;2024-01-16T08:50:20;7.63;;;2.60;;
43835;SDS011;39345;43.964;25.340;2024-01-16T08:52:48;10.95;;;4.20;;
43835;SDS011;39345;43.964;25.340;2024-01-16T08:55:17;4.55;;;2.97;;
43835;SDS011;39345;43.964;25.340;2024-01-16T08:57:44;6.88;;;3.15;;
43835;SDS011;39345;43.964;25.340;2024-01-16T09:00:12;4.20;;;2.80;;
43835;SDS011;39345;43.964;25.340;2024-01-16T09:02:40;5.43;;;2.55;;
43835;SDS011;39345;43.964;25.340;2024-01-16T09:05:07;4.88;;;2.83;;
43835;SDS011;39345;43.964;25.340;2024-01-16T09:07:35;5.10;;;2.83;;
43835;SDS011;39345;43.964;25.340;2024-01-16T09:10:03;5.15;;;2.63;;
43835;SDS011;39345;43.964;25.340;2024-01-16T09:12:31;5.10;;;2.95;;
43835;SDS011;39345;43.964;25.340;2024-01-16T09:14:58;10.50;;;3.10;;
43835;SDS011;39345;43.964;25.340;2024-01-16T09:17:26;4.95;;;3.17;;
43835;SDS011;39345;43.964;25.340;2024-01-16T09:19:54;7.68;;;3.00;;
43835;SDS011;39345;43.964;25.340;2024-01-16T09:22:22;7.68;;;3.70;;
43835;SDS011;39345;43.964;25.340;2024-01-16T09:24:50;5.40;;;3.42;;
43835;SDS011;39345;43.964;25.340;2024-01-16T09:27:17;7.88;;;3.25;;
43835;SDS011;39345;43.964;25.340;2024-01-16T09:29:46;6.07;;;3.30;;
43835;SDS011;39345;43.964;25.340;2024-01-16T09:32:16;5.35;;;3.10;;
43835;SDS011;39345;43.964;25.340;2024-01-16T09:34:44;5.35;;;2.90;;
43835;SDS011;39345;43.964;25.340;2024-01-16T09:37:11;5.55;;;2.80;;
43835;SDS011;39345;43.964;25.340;2024-01-16T09:39:41;9.57;;;3.45;;
43835;SDS011;39345;43.964;25.340;2024-01-16T09:42:09;3.85;;;2.97;;
43835;SDS011;39345;43.964;25.340;2024-01-16T09:44:36;8.25;;;3.65;;
43835;SDS011;39345;43.964;25.340;2024-01-16T09:47:05;9.45;;;3.47;;
43835;SDS011;39345;43.964;25.340;2024-01-16T09:49:34;3.42;;;2.70;;
43835;SDS011;39345;43.964;25.340;2024-01-16T09:52:01;6.70;;;3.35;;
43835;SDS011;39345;43.964;25.340;2024-01-16T09:54:30;6.68;;;4.10;;
43835;SDS011;39345;43.964;25.340;2024-01-16T09:56:58;5.50;;;3.58;;
43835;SDS011;39345;43.964;25.340;2024-01-16T09:59:26;4.95;;;3.15;;
43835;SDS011;39345;43.964;25.340;2024-01-16T10:01:56;9.00;;;3.95;;
43835;SDS011;39345;43.964;25.340;2024-01-16T10:04:24;10.32;;;3.80;;
43835;SDS011;39345;43.964;25.340;2024-01-16T10:06:54;7.75;;;3.80;;
43835;SDS011;39345;43.964;25.340;2024-01-16T10:09:24;10.20;;;4.15;;
43835;SDS011;39345;43.964;25.340;2024-01-16T10:11:52;5.53;;;3.72;;
43835;SDS011;39345;43.964;25.340;2024-01-16T10:14:19;7.13;;;4.45;;
43835;SDS011;39345;43.964;25.340;2024-01-16T10:16:59;7.53;;;4.15;;
43835;SDS011;39345;43.964;25.340;2024-01-16T10:19:50;7.00;;;3.58;;
43835;SDS011;39345;43.964;25.340;2024-01-16T10:22:23;6.63;;;4.22;;
43835;SDS011;39345;43.964;25.340;2024-01-16T10:25:05;7.90;;;3.85;;
43835;SDS011;39345;43.964;25.340;2024-01-16T10:27:35;6.32;;;3.95;;
43835;SDS011;39345;43.964;25.340;2024-01-16T10:30:03;6.32;;;3.60;;
43835;SDS011;39345;43.964;25.340;2024-01-16T10:32:35;8.80;;;3.63;;
43835;SDS011;39345;43.964;25.340;2024-01-16T10:35:07;7.97;;;3.50;;
43835;SDS011;39345;43.964;25.340;2024-01-16T10:37:51;5.72;;;4.05;;
43835;SDS011;39345;43.964;25.340;2024-01-16T10:40:23;5.47;;;3.58;;
43835;SDS011;39345;43.964;25.340;2024-01-16T10:45:25;10.60;;;4.25;;
43835;SDS011;39345;43.964;25.340;2024-01-16T10:48:02;8.00;;;4.00;;
43835;SDS011;39345;43.964;25.340;2024-01-16T10:50:31;9.05;;;4.05;;
43835;SDS011;39345;43.964;25.340;2024-01-16T10:53:00;7.70;;;3.97;;
43835;SDS011;39345;43.964;25.340;2024-01-16T10:55:30;8.77;;;3.88;;
43835;SDS011;39345;43.964;25.340;2024-01-16T10:57:58;7.72;;;3.75;;
43835;SDS011;39345;43.964;25.340;2024-01-16T11:00:27;6.93;;;3.67;;
43835;SDS011;39345;43.964;25.340;2024-01-16T11:02:59;7.22;;;3.60;;
43835;SDS011;39345;43.964;25.340;2024-01-16T11:05:29;7.55;;;3.53;;
43835;SDS011;39345;43.964;25.340;2024-01-16T11:08:00;8.73;;;3.90;;
43835;SDS011;39345;43.964;25.340;2024-01-16T11:10:27;6.68;;;3.72;;
43835;SDS011;39345;43.964;25.340;2024-01-16T11:13:06;7.13;;;3.75;;
43835;SDS011;39345;43.964;25.340;2024-01-16T11:15:33;5.63;;;3.72;;
43835;SDS011;39345;43.964;25.340;2024-01-16T11:18:04;6.60;;;3.35;;
43835;SDS011;39345;43.964;25.340;2024-01-16T11:20:34;5.22;;;3.30;;
43835;SDS011;39345;43.964;25.340;2024-01-16T11:23:22;7.13;;;3.40;;
43835;SDS011;39345;43.964;25.340;2024-01-16T11:25:50;7.28;;;3.72;;
43835;SDS011;39345;43.964;25.340;2024-01-16T11:28:18;6.85;;;3.45;;
43835;SDS011;39345;43.964;25.340;2024-01-16T11:30:46;7.50;;;3.85;;
43835;SDS011;39345;43.964;25.340;2024-01-16T11:36:00;6.18;;;3.30;;
43835;SDS011;39345;43.964;25.340;2024-01-16T11:38:28;6.63;;;3.75;;
43835;SDS011;39345;43.964;25.340;2024-01-16T11:40:56;7.07;;;3.63;;
43835;SDS011;39345;43.964;25.340;2024-01-16T11:46:04;7.05;;;3.83;;
43835;SDS011;39345;43.964;25.340;2024-01-16T11:48:34;9.07;;;4.00;;
43835;SDS011;39345;43.964;25.340;2024-01-16T11:51:24;5.80;;;3.42;;
43835;SDS011;39345;43.964;25.340;2024-01-16T11:53:50;13.35;;;3.72;;
43835;SDS011;39345;43.964;25.340;2024-01-16T12:01:51;8.55;;;3.40;;
43835;SDS011;39345;43.964;25.340;2024-01-16T12:04:20;8.00;;;3.78;;
43835;SDS011;39345;43.964;25.340;2024-01-16T12:06:57;5.97;;;3.67;;
43835;SDS011;39345;43.964;25.340;2024-01-16T12:09:27;7.55;;;4.20;;
43835;SDS011;39345;43.964;25.340;2024-01-16T12:12:01;7.53;;;3.80;;
43835;SDS011;39345;43.964;25.340;2024-01-16T12:14:29;8.07;;;4.00;;
43835;SDS011;39345;43.964;25.340;2024-01-16T12:17:12;8.40;;;4.03;;
43835;SDS011;39345;43.964;25.340;2024-01-16T12:19:42;6.47;;;3.73;;
43835;SDS011;39345;43.964;25.340;2024-01-16T12:22:13;10.50;;;3.83;;
43835;SDS011;39345;43.964;25.340;2024-01-16T12:24:41;5.60;;;3.30;;
43835;SDS011;39345;43.964;25.340;2024-01-16T12:27:09;7.18;;;3.90;;
43835;SDS011;39345;43.964;25.340;2024-01-16T12:29:36;7.97;;;3.60;;
43835;SDS011;39345;43.964;25.340;2024-01-16T12:32:12;7.03;;;3.28;;
43835;SDS011;39345;43.964;25.340;2024-01-16T12:34:46;8.93;;;3.67;;
43835;SDS011;39345;43.964;25.340;2024-01-16T12:37:15;7.15;;;3.38;;
43835;SDS011;39345;43.964;25.340;2024-01-16T12:39:43;9.65;;;3.25;;
43835;SDS011;39345;43.964;25.340;2024-01-16T12:42:11;7.38;;;3.00;;
43835;SDS011;39345;43.964;25.340;2024-01-16T12:44:39;5.32;;;3.58;;
43835;SDS011;39345;43.964;25.340;2024-01-16T12:47:07;6.10;;;3.10;;
43835;SDS011;39345;43.964;25.340;2024-01-16T12:49:41;8.73;;;3.00;;
43835;SDS011;39345;43.964;25.340;2024-01-16T12:52:20;5.00;;;3.20;;
43835;SDS011;39345;43.964;25.340;2024-01-16T12:54:57;5.20;;;3.70;;
43835;SDS011;39345;43.964;25.340;2024-01-16T12:57:26;4.80;;;3.28;;
43835;SDS011;39345;43.964;25.340;2024-01-16T12:59:54;5.13;;;3.28;;
43835;SDS011;39345;43.964;25.340;2024-01-16T13:02:24;6.78;;;3.10;;
43835;SDS011;39345;43.964;25.340;2024-01-16T13:04:59;4.80;;;3.05;;
43835;SDS011;39345;43.964;25.340;2024-01-16T13:07:30;10.32;;;3.20;;
43835;SDS011;39345;43.964;25.340;2024-01-16T13:10:09;5.57;;;2.95;;
43835;SDS011;39345;43.964;25.340;2024-01-16T13:12:46;5.78;;;3.20;;
43835;SDS011;39345;43.964;25.340;2024-01-16T13:15:14;5.90;;;3.70;;
43835;SDS011;39345;43.964;25.340;2024-01-16T13:17:44;6.88;;;2.75;;
43835;SDS011;39345;43.964;25.340;2024-01-16T13:20:11;13.05;;;3.28;;
43835;SDS011;39345;43.964;25.340;2024-01-16T13:22:41;5.35;;;3.38;;
43835;SDS011;39345;43.964;25.340;2024-01-16T13:25:13;6.55;;;2.92;;
43835;SDS011;39345;43.964;25.340;2024-01-16T13:27:41;6.15;;;2.40;;
43835;SDS011;39345;43.964;25.340;2024-01-16T13:30:09;8.65;;;3.10;;
43835;SDS011;39345;43.964;25.340;2024-01-16T13:32:37;4.32;;;2.83;;
43835;SDS011;39345;43.964;25.340;2024-01-16T13:35:08;5.03;;;3.10;;
43835;SDS011;39345;43.964;25.340;2024-01-16T13:37:36;5.53;;;2.88;;
43835;SDS011;39345;43.964;25.340;2024-01-16T13:40:05;6.10;;;2.97;;
43835;SDS011;39345;43.964;25.340;2024-01-16T13:42:42;5.13;;;2.90;;
43835;SDS011;39345;43.964;25.340;2024-01-16T13:45:10;5.63;;;3.42;;
43835;SDS011;39345;43.964;25.340;2024-01-16T13:47:41;4.85;;;3.10;;
43835;SDS011;39345;43.964;25.340;2024-01-16T13:50:09;6.47;;;3.85;;
43835;SDS011;39345;43.964;25.340;2024-01-16T13:52:37;5.45;;;3.47;;
43835;SDS011;39345;43.964;25.340;2024-01-16T13:55:06;10.20;;;3.70;;
43835;SDS011;39345;43.964;25.340;2024-01-16T13:57:37;6.13;;;3.15;;
43835;SDS011;39345;43.964;25.340;2024-01-16T14:00:06;4.97;;;3.10;;
43835;SDS011;39345;43.964;25.340;2024-01-16T14:02:37;11.18;;;3.40;;
43835;SDS011;39345;43.964;25.340;2024-01-16T14:05:07;6.13;;;3.38;;
43835;SDS011;39345;43.964;25.340;2024-01-16T14:07:37;6.05;;;2.88;;
43835;SDS011;39345;43.964;25.340;2024-01-16T14:10:05;4.53;;;2.85;;
43835;SDS011;39345;43.964;25.340;2024-01-16T14:12:33;6.72;;;3.60;;
43835;SDS011;39345;43.964;25.340;2024-01-16T14:15:02;6.07;;;3.47;;
43835;SDS011;39345;43.964;25.340;2024-01-16T14:17:43;5.82;;;3.28;;
43835;SDS011;39345;43.964;25.340;2024-01-16T14:20:12;5.00;;;3.05;;
43835;SDS011;39345;43.964;25.340;2024-01-16T14:22:40;5.68;;;3.47;;
43835;SDS011;39345;43.964;25.340;2024-01-16T14:25:10;5.03;;;3.13;;
43835;SDS011;39345;43.964;25.340;2024-01-16T14:27:39;5.07;;;2.88;;
43835;SDS011;39345;43.964;25.340;2024-01-16T14:30:07;4.40;;;2.70;;
43835;SDS011;39345;43.964;25.340;2024-01-16T14:32:38;5.35;;;2.75;;
43835;SDS011;39345;43.964;25.340;2024-01-16T14:35:07;5.78;;;2.85;;
43835;SDS011;39345;43.964;25.340;2024-01-16T14:37:37;4.68;;;2.92;;
43835;SDS011;39345;43.964;25.340;2024-01-16T14:40:05;6.32;;;3.28;;
43835;SDS011;39345;43.964;25.340;2024-01-16T14:42:39;7.82;;;3.17;;
43835;SDS011;39345;43.964;25.340;2024-01-16T14:45:07;6.50;;;3.20;;